createdAt,value
2022-07-29T00:00:01.523Z,100159.84
2022-07-29T00:03:04.318Z,100162.03
2022-07-29T00:06:07.372Z,100170.25
2022-07-29T00:09:10.165Z,100163.78
2022-07-29T00:12:13.105Z,100168.19
2022-07-29T00:15:16.559Z,100171.72
2022-07-29T00:18:19.408Z,100171.91
2022-07-29T00:21:21.956Z,100177.72
2022-07-29T00:24:24.789Z,100179.66
2022-07-29T00:27:27.255Z,100178.69
2022-07-29T00:30:30.251Z,100173.38
2022-07-29T00:33:32.774Z,100175.25
2022-07-29T00:36:35.547Z,100177.16
2022-07-29T00:39:38.037Z,100164.31
2022-07-29T00:42:58.641Z,100150.50
2022-07-29T00:46:02.489Z,100177.50
2022-07-29T00:49:08.568Z,100167.84
2022-07-29T00:52:12.460Z,100176.25
2022-07-29T00:55:17.032Z,100179.06
2022-07-29T00:58:19.672Z,100181.25
2022-07-29T01:01:22.604Z,100180.50
2022-07-29T01:04:25.411Z,100175.22
2022-07-29T01:07:28.679Z,100180.19
2022-07-29T01:10:31.502Z,100184.16
2022-07-29T01:13:34.445Z,100180.84
2022-07-29T01:16:45.744Z,100172.06
2022-07-29T01:20:13.497Z,100172.37
2022-07-29T01:23:21.920Z,100166.94
2022-07-29T01:26:48.887Z,100170.84
2022-07-29T01:43:14.484Z,100155.84
2022-07-29T01:46:22.717Z,100155.84
2022-07-29T01:49:30.078Z,100166.47
2022-07-29T01:52:39.443Z,100158.84
2022-07-29T01:55:45.726Z,100157.00
2022-07-29T01:58:49.431Z,100157.00
2022-07-29T02:01:54.653Z,100155.28
2022-07-29T02:04:58.934Z,100148.72
2022-07-29T02:08:02.361Z,100155.50
2022-07-29T02:11:06.083Z,100149.44
2022-07-29T02:14:09.920Z,100150.50
2022-07-29T02:17:13.704Z,100162.34
2022-07-29T02:20:17.258Z,100166.13
2022-07-29T02:23:22.283Z,100154.84
2022-07-29T02:26:25.926Z,100159.19
2022-07-29T02:29:31.354Z,100158.28
2022-07-29T02:32:36.539Z,100154.38
2022-07-29T02:35:39.790Z,100157.25
2022-07-29T02:38:52.802Z,100164.72
2022-07-29T02:42:04.254Z,100158.28
2022-07-29T02:45:07.373Z,100159.09
2022-07-29T02:48:16.360Z,100162.66
2022-07-29T02:51:44.006Z,100158.44
2022-07-29T02:54:55.107Z,100152.63
2022-07-29T02:58:07.661Z,100152.75
2022-07-29T03:01:21.707Z,100151.72
2022-07-29T03:04:26.788Z,100160.72
2022-07-29T03:07:30.561Z,100163.59
2022-07-29T03:10:33.640Z,100157.25
2022-07-29T03:13:36.940Z,100160.13
2022-07-29T03:16:41.326Z,100170.84
2022-07-29T03:19:44.455Z,100165.44
2022-07-29T03:22:48.161Z,100177.53
2022-07-29T03:25:51.688Z,100174.66
2022-07-29T03:28:54.268Z,100178.56
2022-07-29T03:31:57.853Z,100173.03
2022-07-29T03:35:00.794Z,100174.22
2022-07-29T03:38:03.851Z,100173.41
2022-07-29T03:41:08.982Z,100172.22
2022-07-29T03:44:12.451Z,100176.00
2022-07-29T03:47:16.446Z,100176.16
2022-07-29T03:50:21.978Z,100179.47
2022-07-29T03:53:24.706Z,100168.31
2022-07-29T03:56:29.235Z,100177.31
2022-07-29T03:59:33.890Z,100188.97
2022-07-29T04:02:37.488Z,100191.69
2022-07-29T04:05:40.495Z,100197.69
2022-07-29T04:08:43.397Z,100194.56
2022-07-29T04:12:01.447Z,100189.75
2022-07-29T04:15:06.729Z,100194.84
2022-07-29T04:18:09.564Z,100186.94
2022-07-29T04:21:12.162Z,100190.22
2022-07-29T04:24:16.332Z,100186.22
2022-07-29T04:27:19.172Z,100178.09
2022-07-29T04:30:24.010Z,100174.75
2022-07-29T04:33:27.158Z,100176.47
2022-07-29T04:36:30.259Z,100173.00
2022-07-29T04:39:32.768Z,100176.31
2022-07-29T04:42:35.558Z,100176.13
2022-07-29T04:45:49.189Z,100176.19
2022-07-29T04:48:52.159Z,100174.56
2022-07-29T04:51:54.889Z,100179.50
2022-07-29T04:54:57.803Z,100178.03
2022-07-29T04:58:00.358Z,100181.31
2022-07-29T05:01:04.690Z,100183.34
2022-07-29T05:04:07.228Z,100180.59
2022-07-29T05:07:10.056Z,100191.28
2022-07-29T05:10:12.805Z,100193.66
2022-07-29T05:13:15.602Z,100186.94
2022-07-29T05:16:18.171Z,100188.78
2022-07-29T05:19:21.022Z,100186.75
2022-07-29T05:22:24.145Z,100184.09
2022-07-29T05:25:40.839Z,100180.50
2022-07-29T05:28:47.132Z,100186.44
2022-07-29T05:31:49.999Z,100184.31
2022-07-29T05:34:52.550Z,100186.81
2022-07-29T05:37:55.389Z,100191.38
2022-07-29T05:40:59.758Z,100196.75
2022-07-29T05:44:03.205Z,100198.66
2022-07-29T05:47:06.006Z,100193.03
2022-07-29T05:50:09.714Z,100198.28
2022-07-29T05:53:19.179Z,100195.81
2022-07-29T05:56:23.462Z,100199.56
2022-07-29T05:59:30.098Z,100192.94
2022-07-29T06:02:33.202Z,100190.41
2022-07-29T06:05:36.106Z,100193.91
2022-07-29T06:08:38.899Z,100189.78
2022-07-29T06:11:42.633Z,100185.31
2022-07-29T06:14:45.154Z,100189.72
2022-07-29T06:17:59.371Z,100185.16
2022-07-29T06:21:09.664Z,100186.50
2022-07-29T06:24:14.014Z,100189.19
2022-07-29T06:27:17.369Z,100185.78
2022-07-29T06:30:20.333Z,100188.50
2022-07-29T06:33:22.890Z,100187.53
2022-07-29T06:36:25.941Z,100186.53
2022-07-29T06:39:29.068Z,100182.69
2022-07-29T06:42:32.128Z,100184.44
2022-07-29T06:45:37.699Z,100186.31
2022-07-29T06:48:43.224Z,100182.91
2022-07-29T06:51:45.772Z,100185.41
2022-07-29T06:54:49.344Z,100188.06
2022-07-29T06:57:52.442Z,100185.87
2022-07-29T07:00:55.926Z,100186.59
2022-07-29T07:03:58.574Z,100185.41
2022-07-29T07:07:01.393Z,100188.69
2022-07-29T07:10:04.581Z,100197.56
2022-07-29T07:13:07.759Z,100179.53
2022-07-29T07:16:10.384Z,100183.72
2022-07-29T07:19:14.187Z,100179.03
2022-07-29T07:22:16.811Z,100174.75
2022-07-29T07:25:19.628Z,100179.75
2022-07-29T07:28:24.991Z,100167.88
2022-07-29T07:31:28.133Z,100168.00
2022-07-29T07:34:31.208Z,100174.00
2022-07-29T07:37:34.579Z,100166.44
2022-07-29T07:40:37.219Z,100161.03
2022-07-29T07:43:40.111Z,100154.84
2022-07-29T07:46:42.692Z,100161.88
2022-07-29T07:49:46.037Z,100163.25
2022-07-29T07:52:50.366Z,100155.59
2022-07-29T07:56:10.049Z,100165.13
2022-07-29T07:59:13.479Z,100169.69
2022-07-29T08:02:16.384Z,100159.03
2022-07-29T08:05:19.344Z,100154.97
2022-07-29T08:08:22.229Z,100161.78
2022-07-29T08:11:25.109Z,100152.81
2022-07-29T08:14:27.643Z,100155.94
2022-07-29T08:17:30.544Z,100151.34
2022-07-29T08:20:39.384Z,100152.81
2022-07-29T08:23:52.799Z,100154.69
2022-07-29T08:27:00.548Z,100150.56
2022-07-29T08:30:03.730Z,100149.69
2022-07-29T08:33:06.443Z,100147.84
2022-07-29T08:36:09.910Z,100151.72
2022-07-29T08:39:12.511Z,100146.13
2022-07-29T08:42:17.727Z,100146.41
2022-07-29T08:45:21.518Z,100144.47
2022-07-29T08:48:24.862Z,100146.34
2022-07-29T08:51:27.733Z,100143.09
2022-07-29T08:54:30.748Z,100147.91
2022-07-29T08:57:35.016Z,100137.72
2022-07-29T09:00:44.254Z,100142.69
2022-07-29T09:03:47.905Z,100138.19
2022-07-29T09:06:52.691Z,100143.06
2022-07-29T09:09:55.746Z,100141.87
2022-07-29T09:12:59.233Z,100124.25
2022-07-29T09:16:07.035Z,100140.16
2022-07-29T09:19:23.224Z,100143.72
2022-07-29T09:22:32.965Z,100127.25
2022-07-29T09:25:40.360Z,100131.63
2022-07-29T09:28:43.522Z,100117.78
2022-07-29T09:31:53.523Z,100114.47
2022-07-29T09:35:15.058Z,100106.50
2022-07-29T09:38:17.908Z,100108.09
2022-07-29T09:41:20.464Z,100115.03
2022-07-29T09:44:24.005Z,100104.28
2022-07-29T09:47:41.947Z,100092.28
2022-07-29T09:50:47.682Z,100101.31
2022-07-29T09:53:51.402Z,100098.97
2022-07-29T09:56:56.968Z,100091.53
2022-07-29T10:00:02.254Z,100092.22
2022-07-29T10:03:15.540Z,100087.72
2022-07-29T10:06:18.341Z,100090.63
2022-07-29T10:09:22.297Z,100089.75
2022-07-29T10:12:25.722Z,100085.06
2022-07-29T10:15:31.101Z,100087.94
2022-07-29T10:18:34.665Z,100095.63
2022-07-29T10:21:38.867Z,100075.97
2022-07-29T10:24:41.661Z,100075.91
2022-07-29T10:27:45.746Z,100063.59
2022-07-29T10:30:51.373Z,100074.28
2022-07-29T10:34:13.286Z,100073.47
2022-07-29T10:37:22.000Z,100070.91
2022-07-29T10:40:59.975Z,100075.69
2022-07-29T10:44:06.147Z,100078.22
2022-07-29T10:47:18.065Z,100064.63
2022-07-29T10:50:22.846Z,100055.75
2022-07-29T10:53:26.302Z,100051.16
2022-07-29T10:56:37.193Z,100046.66
2022-07-29T10:59:41.975Z,100059.84
2022-07-29T11:02:49.934Z,100060.84
2022-07-29T11:06:11.416Z,100042.19
2022-07-29T11:09:20.379Z,100051.13
2022-07-29T11:12:37.803Z,100053.75
2022-07-29T11:15:55.438Z,100047.28
2022-07-29T11:19:13.507Z,100036.34
2022-07-29T11:22:36.789Z,100043.78
2022-07-29T11:25:52.376Z,100044.31
2022-07-29T11:29:02.335Z,100038.34
2022-07-29T11:32:15.774Z,100032.78
2022-07-29T11:35:38.112Z,100032.66
2022-07-29T11:38:42.712Z,100027.13
2022-07-29T11:41:45.788Z,100027.88
2022-07-29T11:45:08.393Z,100026.87
2022-07-29T11:48:27.797Z,100013.53
2022-07-29T11:51:33.250Z,100012.47
2022-07-29T12:01:25.256Z,100006.69
2022-07-29T12:04:31.179Z,100007.56
2022-07-29T12:07:35.607Z,100008.66
2022-07-29T12:10:39.723Z,100002.53
2022-07-29T12:13:42.441Z,99997.81
2022-07-29T12:16:45.314Z,100006.28
2022-07-29T12:19:48.005Z,100004.81
2022-07-29T12:22:54.851Z,100000.97
2022-07-29T12:25:59.391Z,99993.66
2022-07-29T12:29:03.334Z,99992.06
2022-07-29T12:32:14.490Z,99981.69
2022-07-29T12:35:22.504Z,99983.09
2022-07-29T12:38:25.701Z,99978.53
2022-07-29T12:41:30.069Z,99979.00
2022-07-29T12:44:58.973Z,99963.72
2022-07-29T12:48:01.754Z,99963.44
2022-07-29T12:51:06.986Z,99958.69
2022-07-29T12:54:16.418Z,99955.00
2022-07-29T12:57:20.369Z,99955.44
2022-07-29T13:00:25.045Z,99955.91
2022-07-29T13:03:27.816Z,99946.69
2022-07-29T13:06:37.955Z,99951.44
2022-07-29T13:09:42.752Z,99947.63
2022-07-29T13:13:11.522Z,99942.56
2022-07-29T13:16:14.068Z,99937.12
2022-07-29T13:19:17.186Z,99926.31
2022-07-29T13:22:24.264Z,99921.34
2022-07-29T13:25:32.697Z,99928.88
2022-07-29T13:28:35.343Z,99933.41
2022-07-29T13:31:38.166Z,99917.37
2022-07-29T13:34:41.759Z,99914.94
2022-07-29T13:37:44.709Z,99915.91
2022-07-29T13:40:47.386Z,99911.63
2022-07-29T13:43:50.248Z,99915.63
2022-07-29T13:46:52.787Z,99912.47
2022-07-29T13:49:56.398Z,99900.25
2022-07-29T13:52:58.901Z,99892.09
2022-07-29T13:56:01.726Z,99889.13
2022-07-29T13:59:04.327Z,99890.53
2022-07-29T14:02:07.659Z,99889.28
2022-07-29T14:05:13.401Z,99892.09
2022-07-29T14:08:16.226Z,99885.78
2022-07-29T14:11:19.174Z,99889.75
2022-07-29T14:14:21.880Z,99881.22
2022-07-29T14:17:24.720Z,99888.75
2022-07-29T14:20:30.925Z,99876.72
2022-07-29T14:23:33.720Z,99877.22
2022-07-29T14:26:36.377Z,99876.09
2022-07-29T14:29:39.411Z,99869.13
2022-07-29T14:32:42.044Z,99878.37
2022-07-29T14:35:45.941Z,99872.91
2022-07-29T14:38:48.562Z,99868.19
2022-07-29T14:41:52.167Z,99870.03
2022-07-29T14:44:55.074Z,99868.97
2022-07-29T14:47:58.349Z,99867.12
2022-07-29T14:51:04.529Z,99852.06
2022-07-29T14:54:07.924Z,99856.97
2022-07-29T14:57:10.494Z,99859.81
2022-07-29T15:00:13.633Z,99864.87
2022-07-29T15:03:24.186Z,99849.19
2022-07-29T15:06:27.823Z,99864.72
2022-07-29T15:09:30.343Z,99871.34
2022-07-29T15:12:34.088Z,99879.28
2022-07-29T15:15:36.821Z,99881.09
2022-07-29T15:18:39.762Z,99879.16
2022-07-29T15:21:48.813Z,99883.81
2022-07-29T15:24:51.913Z,99914.47
2022-07-29T15:27:56.663Z,99957.09
2022-07-29T15:31:03.576Z,100001.00
2022-07-29T15:34:06.536Z,100000.19
2022-07-29T15:37:09.425Z,100005.06
2022-07-29T15:40:12.060Z,100001.75
2022-07-29T15:43:15.055Z,99985.00
2022-07-29T15:46:37.698Z,99970.19
2022-07-29T15:49:46.456Z,99971.19
2022-07-29T15:52:51.936Z,99988.03
2022-07-29T15:55:54.773Z,99988.72
2022-07-29T15:58:57.723Z,99986.06
2022-07-29T16:02:01.022Z,99985.84
2022-07-29T16:05:04.174Z,99979.84
2022-07-29T16:08:11.941Z,99982.78
2022-07-29T16:11:14.793Z,99980.88
2022-07-29T16:14:18.409Z,99973.56
2022-07-29T16:17:21.367Z,99974.66
2022-07-29T16:20:24.045Z,99965.81
2022-07-29T16:23:26.837Z,99959.03
2022-07-29T16:26:29.370Z,99947.00
2022-07-29T16:29:32.517Z,99927.63
2022-07-29T16:32:35.321Z,99913.38
2022-07-29T16:35:40.393Z,99909.37
2022-07-29T16:38:47.101Z,99906.00
2022-07-29T16:41:50.397Z,99900.44
2022-07-29T16:44:52.997Z,99900.19
2022-07-29T16:48:00.171Z,99901.13
2022-07-29T16:51:04.643Z,99890.62
2022-07-29T16:54:08.758Z,99892.38
2022-07-29T16:57:11.902Z,99885.75
2022-07-29T17:00:16.660Z,99888.75
2022-07-29T17:03:19.175Z,99889.63
2022-07-29T17:06:21.963Z,99889.25
2022-07-29T17:09:25.009Z,99890.25
2022-07-29T17:12:27.852Z,99893.87
2022-07-29T17:15:30.693Z,99894.13
2022-07-29T17:18:39.452Z,99894.37
2022-07-29T17:21:46.250Z,99896.13
2022-07-29T17:24:52.219Z,99895.25
2022-07-29T17:28:00.601Z,99894.37
2022-07-29T17:31:03.934Z,99901.00
2022-07-29T17:34:07.478Z,99897.75
2022-07-29T17:37:11.682Z,99901.87
2022-07-29T17:40:14.267Z,99888.59
2022-07-29T17:43:17.471Z,99887.22
2022-07-29T17:46:22.194Z,99890.09
2022-07-29T17:49:25.555Z,99888.59
2022-07-29T17:52:28.089Z,99888.69
2022-07-29T17:55:30.946Z,99891.81
2022-07-29T17:58:34.119Z,99891.03
2022-07-29T18:01:38.217Z,99892.94
2022-07-29T18:04:41.045Z,99897.22
2022-07-29T18:07:43.656Z,99902.06
2022-07-29T18:10:47.126Z,99901.22
2022-07-29T18:13:50.017Z,99900.78
2022-07-29T18:16:52.914Z,99892.22
2022-07-29T18:19:55.496Z,99908.50
2022-07-29T18:22:58.399Z,99900.19
2022-07-29T18:26:02.574Z,99904.38
2022-07-29T18:29:05.499Z,99903.63
2022-07-29T18:32:11.837Z,99898.22
2022-07-29T18:35:14.647Z,99911.88
2022-07-29T18:38:17.646Z,99907.13
2022-07-29T18:41:20.525Z,99918.25
2022-07-29T18:44:23.138Z,99920.41
2022-07-29T18:47:32.263Z,99917.00
2022-07-29T18:50:36.368Z,99917.75
2022-07-29T18:53:39.229Z,99937.72
2022-07-29T18:56:41.770Z,99940.78
2022-07-29T18:59:44.545Z,99941.19
2022-07-29T19:02:47.212Z,99956.16
2022-07-29T19:05:50.244Z,99951.62
2022-07-29T19:08:53.417Z,99947.13
2022-07-29T19:11:59.658Z,99950.19
2022-07-29T19:15:04.716Z,99940.41
2022-07-29T19:18:07.653Z,99953.66
2022-07-29T19:21:10.790Z,99949.25
2022-07-29T19:24:15.797Z,99944.34
2022-07-29T19:27:18.893Z,99948.28
2022-07-29T19:30:21.961Z,99940.81
2022-07-29T19:33:24.544Z,99946.22
2022-07-29T19:36:27.440Z,99934.34
2022-07-29T19:39:35.443Z,99946.97
2022-07-29T19:42:38.503Z,99957.53
2022-07-29T19:45:41.107Z,99958.13
2022-07-29T19:48:44.629Z,99961.41
2022-07-29T19:51:47.314Z,99966.00
2022-07-29T19:54:50.195Z,99971.19
2022-07-29T19:57:53.300Z,99964.72
2022-07-29T20:00:56.160Z,99973.72
2022-07-29T20:03:59.045Z,99968.22
2022-07-29T20:07:02.152Z,99968.00
2022-07-29T20:10:06.975Z,99973.19
2022-07-29T20:13:09.617Z,99973.88
2022-07-29T20:16:12.457Z,99968.25
2022-07-29T20:19:15.477Z,99975.94
2022-07-29T20:22:21.146Z,99979.00
2022-07-29T20:25:24.215Z,99971.75
2022-07-29T20:28:27.099Z,99984.59
2022-07-29T20:31:30.712Z,99989.50
2022-07-29T20:34:33.663Z,99987.53
2022-07-29T20:37:55.749Z,99999.03
2022-07-29T20:40:58.973Z,99991.47
2022-07-29T20:44:02.271Z,99992.44
2022-07-29T20:47:05.158Z,99987.56
2022-07-29T20:50:09.969Z,99994.16
2022-07-29T20:53:13.657Z,99996.00
2022-07-29T20:56:16.170Z,99995.44
2022-07-29T20:59:19.202Z,99998.38
2022-07-29T21:02:21.782Z,100006.00
2022-07-29T21:05:24.648Z,99997.28
2022-07-29T21:08:27.641Z,99992.59
2022-07-29T21:11:44.758Z,99993.25
2022-07-29T21:14:51.793Z,100003.75
2022-07-29T21:18:00.753Z,99999.25
2022-07-29T21:21:05.085Z,99995.03
2022-07-29T21:24:08.321Z,99983.28
2022-07-29T21:27:32.826Z,99997.09
2022-07-29T21:30:36.379Z,99992.69
2022-07-29T21:33:40.997Z,99993.91
2022-07-29T21:36:48.333Z,99996.28
2022-07-29T21:39:51.406Z,100000.97
2022-07-29T21:42:54.169Z,100014.69
2022-07-29T21:45:57.524Z,100006.94
2022-07-29T21:49:00.544Z,100014.28
2022-07-29T21:52:03.993Z,100005.88
2022-07-29T21:55:07.456Z,100010.97
2022-07-29T21:58:15.577Z,100016.56
2022-07-29T22:01:18.488Z,100021.16
2022-07-29T22:04:21.519Z,100019.22
2022-07-29T22:07:24.041Z,100013.63
2022-07-29T22:10:28.866Z,100017.81
2022-07-29T22:13:36.966Z,100003.13
2022-07-29T22:16:39.928Z,100005.00
2022-07-29T22:19:42.741Z,100003.94
2022-07-29T22:22:45.906Z,99991.41
2022-07-29T22:25:48.573Z,99996.28
2022-07-29T22:28:51.393Z,99994.72
2022-07-29T22:31:53.987Z,100000.13
2022-07-29T22:34:56.783Z,99993.81
2022-07-29T22:37:59.284Z,99988.31
2022-07-29T22:41:03.358Z,99988.94
2022-07-29T22:44:06.039Z,99986.28
2022-07-29T22:47:08.826Z,99977.56
2022-07-29T22:50:11.363Z,99969.34
2022-07-29T22:53:14.297Z,99975.97
2022-07-29T22:56:17.708Z,99978.63
2022-07-29T22:59:20.572Z,99976.16
2022-07-29T23:02:23.133Z,99962.56
2022-07-29T23:05:26.267Z,99961.59
2022-07-29T23:08:28.792Z,99958.06
2022-07-29T23:11:31.898Z,99956.13
2022-07-29T23:14:39.925Z,99955.16
2022-07-29T23:17:42.761Z,99947.59
2022-07-29T23:20:45.675Z,99953.47
2022-07-29T23:23:49.133Z,99946.25
2022-07-29T23:26:51.791Z,99947.13
2022-07-29T23:29:54.557Z,99949.16
2022-07-29T23:32:57.259Z,99953.16
2022-07-29T23:36:00.019Z,99954.91
2022-07-29T23:39:02.580Z,99963.13
2022-07-29T23:42:05.468Z,99950.31
2022-07-29T23:45:08.994Z,99956.78
2022-07-29T23:48:11.970Z,99947.41
2022-07-29T23:51:14.505Z,99946.03
2022-07-29T23:54:17.375Z,99943.75
2022-07-29T23:57:22.928Z,99941.44
